createdAt,value
2019-05-25T00:01:06.425Z,10.20
2019-05-25T00:02:13.380Z,10.20
2019-05-25T00:03:21.290Z,10.20
2019-05-25T00:04:28.397Z,10.20
2019-05-25T00:05:36.522Z,10.20
2019-05-25T00:06:44.252Z,10.10
2019-05-25T00:07:51.970Z,10.20
2019-05-25T00:08:59.020Z,10.10
2019-05-25T00:10:08.383Z,10.20
2019-05-25T00:11:15.210Z,10.20
2019-05-25T00:12:23.151Z,10.10
2019-05-25T00:13:30.195Z,10.10
2019-05-25T00:14:38.319Z,10.10
2019-05-25T00:15:45.275Z,10.10
2019-05-25T00:16:53.508Z,10.10
2019-05-25T00:18:00.999Z,10.10
2019-05-25T00:19:08.848Z,10.10
2019-05-25T00:20:16.382Z,10.10
2019-05-25T00:21:24.377Z,10.20
2019-05-25T00:22:31.669Z,10.20
2019-05-25T00:23:39.696Z,10.20
2019-05-25T00:24:47.056Z,10.20
2019-05-25T00:25:55.063Z,10.20
2019-05-25T00:27:02.476Z,10.20
2019-05-25T00:28:10.436Z,10.30
2019-05-25T00:29:17.847Z,10.30
2019-05-25T00:30:25.605Z,10.20
2019-05-25T00:31:34.646Z,10.20
2019-05-25T00:32:42.524Z,10.20
2019-05-25T00:33:50.018Z,10.30
2019-05-25T00:34:57.650Z,10.30
2019-05-25T00:36:04.746Z,10.30
2019-05-25T00:37:13.415Z,10.30
2019-05-25T00:38:20.590Z,10.30
2019-05-25T00:39:28.760Z,10.40
2019-05-25T00:40:35.964Z,10.30
2019-05-25T00:41:43.652Z,10.40
2019-05-25T00:42:50.548Z,10.40
2019-05-25T00:43:58.953Z,10.40
2019-05-25T00:45:07.321Z,10.40
2019-05-25T00:46:15.005Z,10.30
2019-05-25T00:47:22.336Z,10.40
2019-05-25T00:48:30.181Z,10.40
2019-05-25T00:49:37.067Z,10.40
2019-05-25T00:50:44.738Z,10.40
2019-05-25T00:51:52.495Z,10.40
2019-05-25T00:53:00.266Z,10.50
2019-05-25T00:54:07.938Z,10.40
2019-05-25T00:55:16.188Z,10.40
2019-05-25T00:56:23.156Z,10.40
2019-05-25T00:57:31.747Z,10.40
2019-05-25T00:58:38.863Z,10.30
2019-05-25T00:59:46.873Z,10.30
2019-05-25T01:00:53.938Z,10.20
2019-05-25T01:02:02.143Z,10.20
2019-05-25T01:03:09.874Z,10.10
2019-05-25T01:04:17.891Z,10.00
2019-05-25T01:05:25.199Z,9.90
2019-05-25T01:06:33.407Z,9.90
2019-05-25T01:07:40.552Z,9.90
2019-05-25T01:08:48.612Z,9.90
2019-05-25T01:09:55.644Z,9.90
2019-05-25T01:11:04.213Z,10.00
2019-05-25T01:12:11.609Z,10.00
2019-05-25T01:13:19.680Z,10.00
2019-05-25T01:14:26.694Z,10.00
2019-05-25T01:15:34.572Z,10.00
2019-05-25T01:16:41.779Z,10.00
2019-05-25T01:17:49.940Z,10.00
2019-05-25T01:18:57.021Z,10.10
2019-05-25T01:20:05.506Z,10.10
2019-05-25T01:21:12.475Z,10.10
2019-05-25T01:22:20.499Z,10.20
2019-05-25T01:23:27.629Z,10.20
2019-05-25T01:24:44.237Z,10.30
2019-05-25T01:25:45.116Z,10.40
2019-05-25T01:26:53.180Z,10.40
2019-05-25T01:28:00.321Z,10.40
2019-05-25T01:29:08.717Z,10.40
2019-05-25T01:30:16.772Z,10.50
2019-05-25T01:31:24.425Z,10.50
2019-05-25T01:32:32.232Z,10.50
2019-05-25T01:33:40.071Z,10.50
2019-05-25T01:34:47.745Z,10.60
2019-05-25T01:35:55.623Z,10.60
2019-05-25T01:37:03.079Z,10.60
2019-05-25T01:38:10.880Z,10.60
2019-05-25T01:39:17.823Z,10.70
2019-05-25T01:40:25.843Z,10.60
2019-05-25T01:41:35.117Z,10.60
2019-05-25T01:42:43.457Z,10.60
2019-05-25T01:43:50.753Z,10.60
2019-05-25T01:44:58.506Z,10.60
2019-05-25T01:46:06.151Z,10.60
2019-05-25T01:47:13.809Z,10.60
2019-05-25T01:48:20.693Z,10.60
2019-05-25T01:49:28.552Z,10.60
2019-05-25T01:50:35.854Z,10.60
2019-05-25T01:51:43.924Z,10.60
2019-05-25T01:52:50.861Z,10.60
2019-05-25T01:53:59.151Z,10.70
2019-05-25T01:55:06.576Z,10.70
2019-05-25T01:56:14.390Z,10.70
2019-05-25T01:57:21.686Z,10.80
2019-05-25T01:58:29.617Z,10.80
2019-05-25T01:59:36.766Z,10.80
2019-05-25T02:00:55.637Z,10.80
2019-05-25T02:02:02.646Z,10.80
2019-05-25T02:03:10.621Z,10.80
2019-05-25T02:04:17.502Z,10.80
2019-05-25T02:05:25.448Z,10.80
2019-05-25T02:06:32.556Z,10.90
2019-05-25T02:07:40.818Z,10.90
2019-05-25T02:08:48.490Z,10.80
2019-05-25T02:09:56.149Z,10.90
2019-05-25T02:11:03.774Z,10.90
2019-05-25T02:12:12.443Z,10.90
2019-05-25T02:13:19.460Z,10.90
2019-05-25T02:14:27.985Z,10.90
2019-05-25T02:15:35.283Z,10.90
2019-05-25T02:16:43.855Z,10.90
2019-05-25T02:17:50.779Z,10.90
2019-05-25T02:18:58.450Z,10.90
2019-05-25T02:20:07.084Z,10.90
2019-05-25T02:21:15.574Z,10.90
2019-05-25T02:22:23.186Z,11.00
2019-05-25T02:23:31.279Z,11.00
2019-05-25T02:24:38.103Z,11.00
2019-05-25T02:25:45.796Z,11.00
2019-05-25T02:26:53.239Z,11.10
2019-05-25T02:28:01.311Z,11.10
2019-05-25T02:29:08.259Z,11.10
2019-05-25T02:30:16.645Z,11.10
2019-05-25T02:31:23.491Z,11.10
2019-05-25T02:32:32.443Z,11.10
2019-05-25T02:33:39.706Z,11.10
2019-05-25T02:34:47.691Z,11.10
2019-05-25T02:35:55.253Z,11.10
2019-05-25T02:37:03.080Z,11.10
2019-05-25T02:38:11.277Z,11.10
2019-05-25T02:39:18.955Z,11.20
2019-05-25T02:40:26.248Z,11.20
2019-05-25T02:41:34.754Z,11.10
2019-05-25T02:42:41.669Z,11.10
2019-05-25T02:43:49.623Z,11.20
2019-05-25T02:44:57.216Z,11.20
2019-05-25T02:46:05.077Z,11.20
2019-05-25T02:47:12.056Z,11.20
2019-05-25T02:48:19.684Z,11.20
2019-05-25T02:49:26.697Z,11.20
2019-05-25T02:50:35.162Z,11.20
2019-05-25T02:51:42.073Z,11.20
2019-05-25T02:52:49.937Z,11.20
2019-05-25T02:53:56.814Z,11.20
2019-05-25T02:55:04.699Z,11.20
2019-05-25T02:56:11.896Z,11.20
2019-05-25T02:57:20.692Z,11.20
2019-05-25T02:58:27.884Z,11.20
2019-05-25T02:59:35.578Z,11.20
2019-05-25T03:00:42.486Z,11.30
2019-05-25T03:01:50.600Z,11.20
2019-05-25T03:02:57.603Z,11.30
2019-05-25T03:04:05.857Z,11.30
2019-05-25T03:05:15.885Z,11.30
2019-05-25T03:06:24.798Z,11.30
2019-05-25T03:07:32.824Z,11.20
2019-05-25T03:08:42.719Z,11.20
2019-05-25T03:09:52.397Z,11.20
2019-05-25T03:11:02.047Z,11.30
2019-05-25T03:12:09.299Z,11.30
2019-05-25T03:13:18.180Z,11.30
2019-05-25T03:14:25.552Z,11.30
2019-05-25T03:15:33.866Z,11.20
2019-05-25T03:16:41.198Z,11.30
2019-05-25T03:17:48.986Z,11.30
2019-05-25T03:18:56.004Z,11.30
2019-05-25T03:20:04.654Z,11.30
2019-05-25T03:21:12.718Z,11.30
2019-05-25T03:22:20.566Z,11.30
2019-05-25T03:23:27.498Z,11.30
2019-05-25T03:24:35.916Z,11.30
2019-05-25T03:25:49.568Z,11.30
2019-05-25T03:26:53.546Z,11.30
2019-05-25T03:28:00.951Z,11.30
2019-05-25T03:29:09.066Z,11.30
2019-05-25T03:30:18.105Z,11.40
2019-05-25T03:31:25.755Z,11.40
2019-05-25T03:32:33.164Z,11.30
2019-05-25T03:33:40.850Z,11.40
2019-05-25T03:34:47.690Z,11.30
2019-05-25T03:35:55.778Z,11.30
2019-05-25T03:37:02.829Z,11.30
2019-05-25T03:38:16.263Z,11.30
2019-05-25T03:39:23.515Z,11.30
2019-05-25T03:40:33.196Z,11.30
2019-05-25T03:41:40.502Z,11.30
2019-05-25T03:42:49.014Z,11.30
2019-05-25T03:43:55.973Z,11.40
2019-05-25T03:45:03.657Z,11.40
2019-05-25T03:46:10.528Z,11.40
2019-05-25T03:47:19.051Z,11.40
2019-05-25T03:48:25.961Z,11.30
2019-05-25T03:49:33.679Z,11.40
2019-05-25T03:50:41.277Z,11.40
2019-05-25T03:51:48.930Z,11.30
2019-05-25T03:52:56.049Z,11.30
2019-05-25T03:54:04.564Z,11.30
2019-05-25T03:55:11.411Z,11.30
2019-05-25T03:56:19.085Z,11.40
2019-05-25T03:57:26.660Z,11.30
2019-05-25T03:58:34.641Z,11.40
2019-05-25T03:59:42.049Z,11.40
2019-05-25T04:00:50.067Z,11.40
2019-05-25T04:01:56.896Z,11.40
2019-05-25T04:03:04.713Z,11.40
2019-05-25T04:04:11.709Z,11.40
2019-05-25T04:05:19.340Z,11.40
2019-05-25T04:06:26.223Z,11.40
2019-05-25T04:07:33.999Z,11.40
2019-05-25T04:08:41.516Z,11.40
2019-05-25T04:09:49.350Z,11.50
2019-05-25T04:10:56.227Z,11.50
2019-05-25T04:12:03.967Z,11.50
2019-05-25T04:13:11.466Z,11.60
2019-05-25T04:14:19.471Z,11.60
2019-05-25T04:15:26.681Z,11.60
2019-05-25T04:16:34.796Z,11.60
2019-05-25T04:17:41.927Z,11.60
2019-05-25T04:18:49.683Z,11.60
2019-05-25T04:19:57.111Z,11.60
2019-05-25T04:21:05.551Z,11.60
2019-05-25T04:22:12.777Z,11.70
2019-05-25T04:23:20.438Z,11.70
2019-05-25T04:24:27.309Z,11.60
2019-05-25T04:25:35.096Z,11.60
2019-05-25T04:26:42.347Z,11.60
2019-05-25T04:27:50.182Z,11.60
2019-05-25T04:28:57.424Z,11.60
2019-05-25T04:30:05.913Z,11.60
2019-05-25T04:31:12.751Z,11.60
2019-05-25T04:32:20.703Z,11.60
2019-05-25T04:33:28.195Z,11.60
2019-05-25T04:34:36.192Z,11.50
2019-05-25T04:35:43.581Z,11.50
2019-05-25T04:36:51.527Z,11.50
2019-05-25T04:37:58.442Z,11.60
2019-05-25T04:39:08.031Z,11.60
2019-05-25T04:40:15.952Z,11.70
2019-05-25T04:41:23.599Z,11.70
2019-05-25T04:42:30.424Z,11.70
2019-05-25T04:43:38.565Z,11.70
2019-05-25T04:44:45.767Z,11.80
2019-05-25T04:45:53.457Z,11.80
2019-05-25T04:47:00.610Z,11.80
2019-05-25T04:48:08.615Z,11.80
2019-05-25T04:49:17.025Z,11.80
2019-05-25T04:50:24.815Z,11.90
2019-05-25T04:51:31.691Z,11.90
2019-05-25T04:52:41.310Z,11.90
2019-05-25T04:53:48.251Z,11.90
2019-05-25T04:54:55.867Z,12.00
2019-05-25T04:56:02.698Z,12.00
2019-05-25T04:57:10.379Z,12.00
2019-05-25T04:58:17.739Z,12.10
2019-05-25T04:59:25.336Z,12.10
2019-05-25T05:00:32.338Z,12.20
2019-05-25T05:01:42.401Z,12.20
2019-05-25T05:02:52.788Z,12.20
2019-05-25T05:04:02.450Z,12.30
2019-05-25T05:05:11.666Z,12.30
2019-05-25T05:06:19.977Z,12.40
2019-05-25T05:07:26.938Z,12.40
2019-05-25T05:08:35.770Z,12.40
2019-05-25T05:09:43.313Z,12.30
2019-05-25T05:10:50.937Z,12.40
2019-05-25T05:11:57.798Z,12.40
2019-05-25T05:13:05.797Z,12.40
2019-05-25T05:14:12.983Z,12.60
2019-05-25T05:15:21.136Z,12.50
2019-05-25T05:16:28.055Z,12.50
2019-05-25T05:17:36.376Z,12.60
2019-05-25T05:18:43.192Z,12.50
2019-05-25T05:19:50.828Z,12.50
2019-05-25T05:20:57.953Z,12.60
2019-05-25T05:22:06.201Z,12.60
2019-05-25T05:23:13.474Z,12.60
2019-05-25T05:24:21.135Z,12.60
2019-05-25T05:25:28.321Z,12.70
2019-05-25T05:26:36.323Z,12.60
2019-05-25T05:27:43.680Z,12.70
2019-05-25T05:28:51.316Z,12.60
2019-05-25T05:29:58.124Z,12.70
2019-05-25T05:31:05.744Z,12.80
2019-05-25T05:32:26.604Z,12.80
2019-05-25T05:33:22.249Z,12.90
2019-05-25T05:34:29.751Z,12.80
2019-05-25T05:35:38.995Z,12.90
2019-05-25T05:36:48.734Z,13.00
2019-05-25T05:37:56.943Z,13.00
2019-05-25T05:39:07.106Z,13.10
2019-05-25T05:40:16.289Z,13.10
2019-05-25T05:41:24.924Z,13.10
2019-05-25T05:42:36.679Z,13.10
2019-05-25T05:43:45.833Z,13.30
2019-05-25T05:44:56.215Z,13.30
2019-05-25T05:46:05.618Z,13.40
2019-05-25T05:47:17.316Z,13.40
2019-05-25T05:48:28.242Z,13.30
2019-05-25T05:49:36.304Z,13.40
2019-05-25T05:50:45.279Z,13.50
2019-05-25T05:51:54.215Z,13.50
2019-05-25T05:53:04.936Z,13.60
2019-05-25T05:54:12.859Z,13.60
2019-05-25T05:55:24.808Z,13.70
2019-05-25T05:56:32.872Z,13.70
2019-05-25T05:57:39.793Z,13.70
2019-05-25T05:58:47.429Z,13.70
2019-05-25T05:59:54.301Z,13.70
2019-05-25T06:01:02.244Z,13.70
2019-05-25T06:02:09.495Z,13.80
2019-05-25T06:03:17.497Z,13.90
2019-05-25T06:04:24.351Z,14.00
2019-05-25T06:05:32.215Z,14.10
2019-05-25T06:06:39.543Z,14.20
2019-05-25T06:07:47.804Z,14.20
2019-05-25T06:08:54.719Z,14.10
2019-05-25T06:10:02.383Z,14.00
2019-05-25T06:11:09.233Z,14.00
2019-05-25T06:12:17.330Z,14.00
2019-05-25T06:13:24.199Z,14.00
2019-05-25T06:14:32.575Z,14.00
2019-05-25T06:15:39.426Z,14.00
2019-05-25T06:16:47.545Z,14.10
2019-05-25T06:17:54.376Z,14.00
2019-05-25T06:19:02.029Z,14.00
2019-05-25T06:20:10.317Z,13.90
2019-05-25T06:21:17.977Z,13.90
2019-05-25T06:22:25.227Z,14.10
2019-05-25T06:23:32.889Z,14.20
2019-05-25T06:24:40.371Z,14.10
2019-05-25T06:25:48.133Z,14.00
2019-05-25T06:26:55.605Z,14.10
2019-05-25T06:28:04.335Z,14.10
2019-05-25T06:29:11.671Z,14.20
2019-05-25T06:30:21.538Z,14.30
2019-05-25T06:31:28.588Z,14.40
2019-05-25T06:32:37.024Z,14.30
2019-05-25T06:33:44.326Z,14.30
2019-05-25T06:34:52.649Z,14.30
2019-05-25T06:35:59.618Z,14.30
2019-05-25T06:37:07.414Z,14.30
2019-05-25T06:38:14.829Z,14.40
2019-05-25T06:39:22.445Z,14.50
2019-05-25T06:40:29.495Z,14.50
2019-05-25T06:41:38.691Z,14.60
2019-05-25T06:42:46.491Z,14.70
2019-05-25T06:43:54.422Z,14.70
2019-05-25T06:45:01.383Z,14.70
2019-05-25T06:46:09.225Z,14.80
2019-05-25T06:47:16.161Z,14.80
2019-05-25T06:48:24.375Z,14.80
2019-05-25T06:49:31.667Z,14.80
2019-05-25T06:50:40.445Z,14.70
2019-05-25T06:51:47.660Z,14.60
2019-05-25T06:52:57.873Z,14.40
2019-05-25T06:54:04.608Z,14.40
2019-05-25T06:55:13.316Z,14.40
2019-05-25T06:56:20.706Z,14.40
2019-05-25T06:57:42.053Z,14.40
2019-05-25T06:58:37.239Z,14.30
2019-05-25T06:59:45.087Z,14.30
2019-05-25T07:00:52.279Z,14.20
2019-05-25T07:02:00.068Z,14.00
2019-05-25T07:03:07.892Z,13.90
2019-05-25T07:04:16.096Z,13.90
2019-05-25T07:05:22.987Z,13.90
2019-05-25T07:06:30.975Z,13.90
2019-05-25T07:07:37.787Z,13.90
2019-05-25T07:08:46.053Z,13.90
2019-05-25T07:09:53.011Z,14.00
2019-05-25T07:11:00.720Z,14.00
2019-05-25T07:12:07.771Z,14.00
2019-05-25T07:13:15.656Z,14.00
2019-05-25T07:14:23.703Z,14.00
2019-05-25T07:15:31.965Z,14.00
2019-05-25T07:16:39.143Z,13.90
2019-05-25T07:17:47.051Z,13.90
2019-05-25T07:18:53.884Z,13.90
2019-05-25T07:20:01.562Z,13.90
2019-05-25T07:21:08.523Z,13.70
2019-05-25T07:22:16.139Z,13.70
2019-05-25T07:23:22.961Z,13.70
2019-05-25T07:24:31.261Z,13.70
2019-05-25T07:25:38.600Z,13.70
2019-05-25T07:26:46.629Z,13.70
2019-05-25T07:27:59.844Z,13.70
2019-05-25T07:29:03.163Z,13.70
2019-05-25T07:30:12.008Z,13.60
2019-05-25T07:31:20.429Z,13.70
2019-05-25T07:32:27.875Z,13.70
2019-05-25T07:33:36.460Z,13.80
2019-05-25T07:34:43.355Z,13.90
2019-05-25T07:35:51.162Z,13.80
2019-05-25T07:36:59.013Z,13.90
2019-05-25T07:38:07.405Z,13.90
2019-05-25T07:39:14.825Z,13.80
2019-05-25T07:40:22.640Z,14.00
2019-05-25T07:41:29.879Z,14.00
2019-05-25T07:42:37.908Z,14.00
2019-05-25T07:43:45.305Z,14.00
2019-05-25T07:44:53.918Z,14.00
2019-05-25T07:46:01.802Z,14.00
2019-05-25T07:47:09.694Z,14.10
2019-05-25T07:48:17.504Z,14.30
2019-05-25T07:49:26.018Z,14.40
2019-05-25T07:50:32.862Z,14.40
2019-05-25T07:51:40.950Z,14.40
2019-05-25T07:52:48.526Z,14.50
2019-05-25T07:53:57.431Z,14.50
2019-05-25T07:55:05.372Z,14.70
2019-05-25T07:56:13.632Z,14.80
2019-05-25T07:57:21.092Z,14.80
2019-05-25T07:58:29.073Z,14.90
2019-05-25T07:59:36.835Z,15.10
2019-05-25T08:00:44.997Z,15.30
2019-05-25T08:01:52.221Z,15.40
2019-05-25T08:03:01.259Z,15.50
2019-05-25T08:04:08.787Z,15.60
2019-05-25T08:05:17.217Z,15.80
2019-05-25T08:06:25.006Z,15.80
2019-05-25T08:07:33.108Z,15.50
2019-05-25T08:08:40.509Z,15.40
2019-05-25T08:09:48.389Z,15.50
2019-05-25T08:10:55.192Z,15.70
2019-05-25T08:12:02.907Z,15.90
2019-05-25T08:13:10.325Z,15.90
2019-05-25T08:14:18.839Z,15.80
2019-05-25T08:15:25.783Z,15.70
2019-05-25T08:16:35.021Z,15.90
2019-05-25T08:17:44.606Z,15.90
2019-05-25T08:18:52.646Z,15.90
2019-05-25T08:20:00.056Z,16.00
2019-05-25T08:21:08.603Z,16.10
2019-05-25T08:22:15.958Z,16.20
2019-05-25T08:23:24.938Z,16.40
2019-05-25T08:24:32.688Z,16.50
2019-05-25T08:25:40.752Z,16.40
2019-05-25T08:26:48.210Z,16.40
2019-05-25T08:27:56.225Z,16.50
2019-05-25T08:29:03.367Z,16.60
2019-05-25T08:30:11.934Z,16.60
2019-05-25T08:31:19.477Z,16.80
2019-05-25T08:32:27.986Z,16.90
2019-05-25T08:33:35.554Z,17.10
2019-05-25T08:34:43.329Z,17.20
2019-05-25T08:35:50.371Z,17.30
2019-05-25T08:36:58.198Z,17.30
2019-05-25T08:38:05.618Z,17.30
2019-05-25T08:39:14.116Z,17.30
2019-05-25T08:40:21.516Z,16.90
2019-05-25T08:41:30.392Z,16.70
2019-05-25T08:42:37.370Z,16.50
2019-05-25T08:43:45.630Z,16.60
2019-05-25T08:44:53.225Z,16.60
2019-05-25T08:46:01.680Z,16.60
2019-05-25T08:47:09.463Z,16.60
2019-05-25T08:48:17.742Z,16.70
2019-05-25T08:49:24.754Z,16.70
2019-05-25T08:50:38.274Z,16.90
2019-05-25T08:51:42.012Z,16.80
2019-05-25T08:52:50.249Z,16.80
2019-05-25T08:53:57.551Z,16.90
2019-05-25T08:55:05.263Z,16.90
2019-05-25T08:56:12.402Z,16.80
2019-05-25T08:57:20.481Z,16.90
2019-05-25T08:58:27.535Z,16.90
2019-05-25T08:59:35.777Z,16.80
2019-05-25T09:00:42.720Z,16.70
2019-05-25T09:01:50.529Z,16.90
2019-05-25T09:02:57.518Z,16.80
2019-05-25T09:04:05.372Z,16.90
2019-05-25T09:05:12.690Z,16.70
2019-05-25T09:06:20.791Z,16.70
2019-05-25T09:07:27.671Z,16.60
2019-05-25T09:08:36.036Z,16.70
2019-05-25T09:09:42.909Z,16.60
2019-05-25T09:10:50.499Z,16.70
2019-05-25T09:11:57.333Z,16.60
2019-05-25T09:13:05.032Z,16.50
2019-05-25T09:14:11.850Z,16.60
2019-05-25T09:15:21.167Z,16.60
2019-05-25T09:16:28.458Z,16.80
2019-05-25T09:17:36.742Z,16.80
2019-05-25T09:18:43.951Z,16.80
2019-05-25T09:19:51.757Z,16.60
2019-05-25T09:20:59.111Z,16.50
2019-05-25T09:22:06.939Z,16.50
2019-05-25T09:23:14.542Z,16.50
2019-05-25T09:24:22.382Z,16.50
2019-05-25T09:25:29.291Z,16.50
2019-05-25T09:26:37.329Z,16.70
2019-05-25T09:27:44.248Z,16.70
2019-05-25T09:29:03.947Z,16.80
2019-05-25T09:30:01.827Z,17.00
2019-05-25T09:31:09.807Z,17.20
2019-05-25T09:32:16.879Z,17.50
2019-05-25T09:33:24.957Z,17.70
2019-05-25T09:34:32.194Z,17.60
2019-05-25T09:35:40.186Z,17.60
2019-05-25T09:36:47.733Z,17.70
2019-05-25T09:37:55.446Z,17.80
2019-05-25T09:39:02.848Z,17.90
2019-05-25T09:40:11.019Z,18.00
2019-05-25T09:41:18.132Z,17.90
2019-05-25T09:42:25.815Z,17.90
2019-05-25T09:43:33.998Z,17.80
2019-05-25T09:44:41.671Z,17.80
2019-05-25T09:45:48.476Z,17.80
2019-05-25T09:46:56.425Z,17.60
2019-05-25T09:48:03.450Z,17.50
2019-05-25T09:49:11.818Z,17.30
2019-05-25T09:50:19.171Z,17.30
2019-05-25T09:51:26.801Z,17.20
2019-05-25T09:52:34.043Z,17.10
2019-05-25T09:53:42.034Z,16.80
2019-05-25T09:54:49.237Z,16.90
2019-05-25T09:55:56.870Z,16.90
2019-05-25T09:57:03.720Z,16.90
2019-05-25T09:58:11.509Z,17.00
2019-05-25T09:59:20.326Z,17.00
2019-05-25T10:00:28.897Z,16.90
2019-05-25T10:01:35.869Z,16.90
2019-05-25T10:02:44.406Z,16.80
2019-05-25T10:03:51.350Z,16.80
2019-05-25T10:04:59.272Z,16.90
2019-05-25T10:06:11.724Z,16.90
2019-05-25T10:07:15.815Z,17.10
2019-05-25T10:08:22.629Z,17.20
2019-05-25T10:09:30.243Z,17.30
2019-05-25T10:10:37.105Z,17.50
2019-05-25T10:11:44.720Z,17.70
2019-05-25T10:12:51.819Z,17.60
2019-05-25T10:13:59.778Z,17.70
2019-05-25T10:15:07.439Z,17.70
2019-05-25T10:16:15.060Z,17.80
2019-05-25T10:17:22.097Z,17.70
2019-05-25T10:18:30.108Z,17.60
2019-05-25T10:19:36.934Z,17.60
2019-05-25T10:20:45.173Z,17.80
2019-05-25T10:21:52.014Z,17.80
2019-05-25T10:23:00.022Z,17.70
2019-05-25T10:24:07.791Z,17.80
2019-05-25T10:25:15.929Z,17.90
2019-05-25T10:26:23.765Z,17.80
2019-05-25T10:27:34.186Z,17.70
2019-05-25T10:28:40.682Z,17.70
2019-05-25T10:29:48.678Z,18.00
2019-05-25T10:30:55.992Z,18.10
2019-05-25T10:32:04.153Z,18.10
2019-05-25T10:33:11.025Z,18.10
2019-05-25T10:34:18.972Z,17.90
2019-05-25T10:35:25.936Z,17.90
2019-05-25T10:36:33.721Z,18.00
2019-05-25T10:37:40.698Z,18.10
2019-05-25T10:38:48.329Z,18.10
2019-05-25T10:39:55.358Z,18.20
2019-05-25T10:41:03.498Z,18.20
2019-05-25T10:42:10.901Z,18.10
2019-05-25T10:43:19.130Z,18.50
2019-05-25T10:44:26.074Z,18.60
2019-05-25T10:45:34.258Z,18.60
2019-05-25T10:46:41.270Z,18.50
2019-05-25T10:47:48.913Z,18.20
2019-05-25T10:48:55.875Z,18.40
2019-05-25T10:50:04.026Z,18.60
2019-05-25T10:51:11.389Z,18.70
2019-05-25T10:52:19.137Z,18.60
2019-05-25T10:53:25.961Z,18.60
2019-05-25T10:54:33.806Z,18.50
2019-05-25T10:55:40.623Z,18.30
2019-05-25T10:56:48.621Z,18.20
2019-05-25T10:57:55.444Z,18.30
2019-05-25T10:59:03.496Z,18.20
2019-05-25T11:00:11.964Z,18.20
2019-05-25T11:01:19.651Z,18.20
2019-05-25T11:02:26.471Z,18.30
2019-05-25T11:03:34.076Z,18.30
2019-05-25T11:04:40.896Z,18.40
2019-05-25T11:05:48.968Z,18.40
2019-05-25T11:06:55.794Z,18.20
2019-05-25T11:08:03.508Z,18.20
2019-05-25T11:09:10.358Z,18.20
2019-05-25T11:10:17.963Z,18.40
2019-05-25T11:11:24.959Z,18.50
2019-05-25T11:12:33.544Z,18.40
2019-05-25T11:13:40.729Z,18.60
2019-05-25T11:14:48.645Z,18.60
2019-05-25T11:15:55.786Z,18.70
2019-05-25T11:17:03.965Z,19.00
2019-05-25T11:18:10.893Z,19.10
2019-05-25T11:19:18.492Z,19.20
2019-05-25T11:20:26.061Z,19.50
2019-05-25T11:21:34.027Z,19.80
2019-05-25T11:22:40.917Z,19.90
2019-05-25T11:23:48.833Z,19.80
2019-05-25T11:24:56.014Z,19.90
2019-05-25T11:26:03.989Z,20.10
2019-05-25T11:27:11.230Z,20.40
2019-05-25T11:28:18.936Z,20.50
2019-05-25T11:29:25.758Z,20.60
2019-05-25T11:30:33.800Z,20.60
2019-05-25T11:31:41.068Z,20.40
2019-05-25T11:32:49.048Z,20.30
2019-05-25T11:33:55.911Z,20.10
2019-05-25T11:35:03.566Z,19.70
2019-05-25T11:36:10.403Z,19.60
2019-05-25T11:37:18.139Z,19.70
2019-05-25T11:38:25.554Z,19.60
2019-05-25T11:39:33.418Z,19.60
2019-05-25T11:40:40.553Z,19.80
2019-05-25T11:41:48.393Z,19.90
2019-05-25T11:42:56.005Z,20.20
2019-05-25T11:44:04.014Z,20.40
2019-05-25T11:45:12.424Z,20.60
2019-05-25T11:46:20.467Z,20.80
2019-05-25T11:47:27.512Z,21.10
2019-05-25T11:48:35.827Z,21.30
2019-05-25T11:49:42.678Z,21.40
2019-05-25T11:50:50.438Z,21.20
2019-05-25T11:51:57.845Z,21.10
2019-05-25T11:53:06.302Z,21.10
2019-05-25T11:54:13.884Z,20.90
2019-05-25T11:55:23.412Z,20.90
2019-05-25T11:56:30.809Z,21.00
2019-05-25T11:57:39.055Z,20.90
2019-05-25T11:58:47.908Z,20.90
2019-05-25T11:59:56.496Z,20.70
2019-05-25T12:01:04.066Z,20.90
2019-05-25T12:02:12.025Z,21.00
2019-05-25T12:03:19.707Z,21.00
2019-05-25T12:04:27.617Z,20.50
2019-05-25T12:05:35.109Z,20.50
2019-05-25T12:06:43.619Z,20.60
2019-05-25T12:07:51.106Z,20.60
2019-05-25T12:08:59.735Z,20.40
2019-05-25T12:10:08.713Z,20.40
2019-05-25T12:11:16.622Z,20.40
2019-05-25T12:12:24.088Z,20.60
2019-05-25T12:13:32.282Z,20.60
2019-05-25T12:14:39.973Z,20.60
2019-05-25T12:15:47.766Z,20.60
2019-05-25T12:16:54.772Z,20.30
2019-05-25T12:18:03.158Z,20.30
2019-05-25T12:19:14.722Z,20.40
2019-05-25T12:20:22.667Z,20.50
2019-05-25T12:21:29.896Z,20.10
2019-05-25T12:22:38.370Z,19.90
2019-05-25T12:23:45.302Z,19.90
2019-05-25T12:24:53.068Z,19.90
2019-05-25T12:26:00.001Z,19.70
2019-05-25T12:27:07.891Z,19.50
2019-05-25T12:28:14.985Z,19.50
2019-05-25T12:29:23.159Z,19.50
2019-05-25T12:30:40.942Z,19.70
2019-05-25T12:31:41.558Z,20.00
2019-05-25T12:32:48.434Z,20.30
2019-05-25T12:33:56.238Z,20.50
2019-05-25T12:35:03.332Z,20.50
2019-05-25T12:36:12.948Z,20.50
2019-05-25T12:37:19.898Z,20.50
2019-05-25T12:38:28.045Z,20.40
2019-05-25T12:39:35.639Z,20.40
2019-05-25T12:40:53.169Z,20.50
2019-05-25T12:41:52.564Z,20.70
2019-05-25T12:43:00.169Z,20.50
2019-05-25T12:44:07.636Z,20.60
2019-05-25T12:45:16.353Z,20.60
2019-05-25T12:46:23.231Z,20.60
2019-05-25T12:47:31.200Z,20.60
2019-05-25T12:48:38.156Z,20.80
2019-05-25T12:49:50.807Z,20.90
2019-05-25T12:50:55.085Z,20.80
2019-05-25T12:52:03.377Z,20.70
2019-05-25T12:53:10.769Z,20.50
2019-05-25T12:54:18.501Z,20.50
2019-05-25T12:55:25.425Z,20.50
2019-05-25T12:56:33.459Z,20.60
2019-05-25T12:57:40.702Z,20.50
2019-05-25T12:58:50.255Z,20.60
2019-05-25T13:00:12.267Z,20.60
2019-05-25T13:01:07.635Z,20.70
2019-05-25T13:02:14.663Z,20.50
2019-05-25T13:03:22.919Z,20.60
2019-05-25T13:04:29.863Z,20.60
2019-05-25T13:05:38.119Z,20.70
2019-05-25T13:06:45.198Z,20.90
2019-05-25T13:07:53.243Z,20.80
2019-05-25T13:09:00.102Z,20.80
2019-05-25T13:10:08.676Z,20.70
2019-05-25T13:11:15.814Z,20.70
2019-05-25T13:12:23.435Z,20.80
2019-05-25T13:13:30.393Z,20.90
2019-05-25T13:14:38.378Z,21.00
2019-05-25T13:15:45.553Z,21.00
2019-05-25T13:16:53.492Z,21.10
2019-05-25T13:18:00.774Z,21.00
2019-05-25T13:19:08.737Z,21.00
2019-05-25T13:20:16.267Z,20.90
2019-05-25T13:21:24.230Z,20.90
2019-05-25T13:22:31.278Z,21.00
2019-05-25T13:23:39.447Z,20.90
2019-05-25T13:24:46.779Z,20.70
2019-05-25T13:25:54.451Z,20.60
2019-05-25T13:27:02.068Z,20.60
2019-05-25T13:28:09.935Z,20.50
2019-05-25T13:29:16.800Z,20.40
2019-05-25T13:30:24.742Z,20.50
2019-05-25T13:31:31.649Z,20.60
2019-05-25T13:32:40.246Z,20.50
2019-05-25T13:33:47.209Z,20.40
2019-05-25T13:34:55.312Z,20.40
2019-05-25T13:36:02.818Z,20.60
2019-05-25T13:37:10.782Z,20.70
2019-05-25T13:38:17.734Z,21.10
2019-05-25T13:39:27.265Z,21.40
2019-05-25T13:40:34.598Z,21.70
2019-05-25T13:41:42.647Z,21.80
2019-05-25T13:42:50.377Z,22.00
2019-05-25T13:43:58.683Z,21.90
2019-05-25T13:45:06.187Z,21.80
2019-05-25T13:46:14.192Z,21.70
2019-05-25T13:47:21.474Z,21.60
2019-05-25T13:48:29.130Z,21.50
2019-05-25T13:49:35.947Z,21.30
2019-05-25T13:50:44.013Z,21.30
2019-05-25T13:51:51.484Z,21.40
2019-05-25T13:52:59.286Z,21.60
2019-05-25T13:54:06.703Z,21.70
2019-05-25T13:55:14.984Z,21.80
2019-05-25T13:56:22.271Z,21.90
2019-05-25T13:57:30.399Z,21.80
2019-05-25T13:58:39.253Z,21.80
2019-05-25T13:59:47.007Z,21.60
2019-05-25T14:00:54.823Z,21.50
2019-05-25T14:02:02.656Z,21.30
2019-05-25T14:03:10.081Z,21.10
2019-05-25T14:04:18.396Z,21.00
2019-05-25T14:05:25.782Z,21.20
2019-05-25T14:06:34.397Z,21.10
2019-05-25T14:07:41.532Z,21.00
2019-05-25T14:08:49.797Z,21.10
2019-05-25T14:09:57.029Z,21.20
2019-05-25T14:11:05.314Z,21.50
2019-05-25T14:12:13.084Z,21.70
2019-05-25T14:13:21.619Z,22.00
2019-05-25T14:14:28.697Z,22.10
2019-05-25T14:15:36.566Z,22.40
2019-05-25T14:16:44.014Z,22.40
2019-05-25T14:17:52.044Z,22.30
2019-05-25T14:18:59.237Z,22.20
2019-05-25T14:20:07.712Z,22.00
2019-05-25T14:21:14.734Z,22.00
2019-05-25T14:22:22.732Z,22.30
2019-05-25T14:23:29.713Z,22.40
2019-05-25T14:24:37.785Z,22.60
2019-05-25T14:25:45.507Z,22.40
2019-05-25T14:26:54.109Z,22.60
2019-05-25T14:28:01.216Z,22.50
2019-05-25T14:29:08.916Z,22.30
2019-05-25T14:30:16.976Z,22.30
2019-05-25T14:31:25.294Z,22.40
2019-05-25T14:32:33.135Z,22.40
2019-05-25T14:33:40.890Z,22.30